sensor_id;sensor_type;location;lat;lon;timestamp;P1;durP1;ratioP1;P2;durP2;ratioP2
64641;SDS011;59936;51.490;5.436;2022-07-29T00:00:04;4.73;;;2.10;;
64641;SDS011;59936;51.490;5.436;2022-07-29T00:00:13;5.30;;;2.07;;
64641;SDS011;59936;51.490;5.436;2022-07-29T00:00:19;5.60;;;2.10;;
64641;SDS011;59936;51.490;5.436;2022-07-29T00:00:25;5.90;;;2.10;;
64641;SDS011;59936;51.490;5.436;2022-07-29T00:00:30;5.82;;;2.13;;
64641;SDS011;59936;51.490;5.436;2022-07-29T00:00:35;5.17;;;2.03;;
64641;SDS011;59936;51.490;5.436;2022-07-29T00:00:41;5.07;;;2.00;;
64641;SDS011;59936;51.490;5.436;2022-07-29T00:00:49;4.56;;;1.87;;
64641;SDS011;59936;51.490;5.436;2022-07-29T00:00:54;3.87;;;1.90;;
64641;SDS011;59936;51.490;5.436;2022-07-29T00:01:00;3.93;;;1.80;;
64641;SDS011;59936;51.490;5.436;2022-07-29T00:01:05;4.43;;;1.88;;
64641;SDS011;59936;51.490;5.436;2022-07-29T00:01:14;3.90;;;1.90;;
64641;SDS011;59936;51.490;5.436;2022-07-29T00:01:20;4.83;;;2.06;;
64641;SDS011;59936;51.490;5.436;2022-07-29T00:01:26;8.03;;;2.07;;
64641;SDS011;59936;51.490;5.436;2022-07-29T00:01:31;8.52;;;2.10;;
64641;SDS011;59936;51.490;5.436;2022-07-29T00:01:36;8.70;;;2.00;;
64641;SDS011;59936;51.490;5.436;2022-07-29T00:01:42;8.77;;;2.07;;
64641;SDS011;59936;51.490;5.436;2022-07-29T00:01:48;8.77;;;2.00;;
64641;SDS011;59936;51.490;5.436;2022-07-29T00:01:53;7.57;;;1.97;;
64641;SDS011;59936;51.490;5.436;2022-07-29T00:01:59;4.45;;;1.92;;
64641;SDS011;59936;51.490;5.436;2022-07-29T00:02:04;4.43;;;2.00;;
64641;SDS011;59936;51.490;5.436;2022-07-29T00:02:09;4.27;;;2.00;;
64641;SDS011;59936;51.490;5.436;2022-07-29T00:02:15;4.80;;;2.00;;
64641;SDS011;59936;51.490;5.436;2022-07-29T00:02:20;4.40;;;2.00;;
64641;SDS011;59936;51.490;5.436;2022-07-29T00:02:26;4.57;;;1.90;;
64641;SDS011;59936;51.490;5.436;2022-07-29T00:02:32;4.50;;;1.92;;
64641;SDS011;59936;51.490;5.436;2022-07-29T00:02:38;5.22;;;2.00;;
64641;SDS011;59936;51.490;5.436;2022-07-29T00:02:43;4.70;;;2.00;;
64641;SDS011;59936;51.490;5.436;2022-07-29T00:02:48;4.50;;;1.90;;
64641;SDS011;59936;51.490;5.436;2022-07-29T00:02:54;4.68;;;1.98;;
64641;SDS011;59936;51.490;5.436;2022-07-29T00:02:59;5.07;;;2.07;;
64641;SDS011;59936;51.490;5.436;2022-07-29T00:03:04;4.53;;;2.00;;
64641;SDS011;59936;51.490;5.436;2022-07-29T00:03:11;3.67;;;2.00;;
64641;SDS011;59936;51.490;5.436;2022-07-29T00:03:17;3.88;;;2.08;;
64641;SDS011;59936;51.490;5.436;2022-07-29T00:03:22;3.17;;;2.10;;
64641;SDS011;59936;51.490;5.436;2022-07-29T00:03:27;3.23;;;2.10;;
64641;SDS011;59936;51.490;5.436;2022-07-29T00:03:33;3.50;;;2.00;;
64641;SDS011;59936;51.490;5.436;2022-07-29T00:03:38;3.53;;;2.00;;
64641;SDS011;59936;51.490;5.436;2022-07-29T00:03:43;3.60;;;2.03;;
64641;SDS011;59936;51.490;5.436;2022-07-29T00:03:49;3.45;;;2.00;;
64641;SDS011;59936;51.490;5.436;2022-07-29T00:03:54;5.57;;;2.07;;
64641;SDS011;59936;51.490;5.436;2022-07-29T00:03:59;6.13;;;2.10;;
64641;SDS011;59936;51.490;5.436;2022-07-29T00:04:05;6.32;;;2.10;;
64641;SDS011;59936;51.490;5.436;2022-07-29T00:04:10;6.90;;;2.17;;
64641;SDS011;59936;51.490;5.436;2022-07-29T00:04:16;7.25;;;2.05;;
64641;SDS011;59936;51.490;5.436;2022-07-29T00:04:21;6.97;;;2.07;;
64641;SDS011;59936;51.490;5.436;2022-07-29T00:04:27;4.43;;;1.90;;
64641;SDS011;59936;51.490;5.436;2022-07-29T00:04:34;4.87;;;1.90;;
64641;SDS011;59936;51.490;5.436;2022-07-29T00:04:40;4.70;;;1.90;;
64641;SDS011;59936;51.490;5.436;2022-07-29T00:04:46;4.30;;;1.90;;
64641;SDS011;59936;51.490;5.436;2022-07-29T00:04:51;4.57;;;1.90;;
64641;SDS011;59936;51.490;5.436;2022-07-29T00:04:57;5.40;;;1.90;;
64641;SDS011;59936;51.490;5.436;2022-07-29T00:05:03;4.90;;;1.90;;
64641;SDS011;59936;51.490;5.436;2022-07-29T00:05:10;4.90;;;1.93;;
64641;SDS011;59936;51.490;5.436;2022-07-29T00:05:18;4.84;;;2.00;;
64641;SDS011;59936;51.490;5.436;2022-07-29T00:05:23;4.97;;;2.00;;
64641;SDS011;59936;51.490;5.436;2022-07-29T00:05:29;4.35;;;2.00;;
64641;SDS011;59936;51.490;5.436;2022-07-29T00:05:34;4.30;;;2.00;;
64641;SDS011;59936;51.490;5.436;2022-07-29T00:05:40;4.23;;;2.00;;
64641;SDS011;59936;51.490;5.436;2022-07-29T00:05:46;3.90;;;1.90;;
64641;SDS011;59936;51.490;5.436;2022-07-29T00:05:52;3.13;;;1.90;;
64641;SDS011;59936;51.490;5.436;2022-07-29T00:05:58;3.50;;;1.93;;
64641;SDS011;59936;51.490;5.436;2022-07-29T00:06:03;3.97;;;2.00;;
64641;SDS011;59936;51.490;5.436;2022-07-29T00:06:08;4.83;;;2.00;;
64641;SDS011;59936;51.490;5.436;2022-07-29T00:06:14;5.55;;;2.10;;
64641;SDS011;59936;51.490;5.436;2022-07-29T00:06:20;6.00;;;2.28;;
64641;SDS011;59936;51.490;5.436;2022-07-29T00:06:25;6.47;;;2.40;;
64641;SDS011;59936;51.490;5.436;2022-07-29T00:06:31;6.22;;;2.25;;
64641;SDS011;59936;51.490;5.436;2022-07-29T00:06:36;6.63;;;2.33;;
64641;SDS011;59936;51.490;5.436;2022-07-29T00:06:42;6.35;;;2.38;;
64641;SDS011;59936;51.490;5.436;2022-07-29T00:06:47;6.67;;;2.27;;
64641;SDS011;59936;51.490;5.436;2022-07-29T00:06:52;6.40;;;2.20;;
64641;SDS011;59936;51.490;5.436;2022-07-29T00:06:58;7.05;;;2.20;;
64641;SDS011;59936;51.490;5.436;2022-07-29T00:07:03;7.60;;;2.20;;
64641;SDS011;59936;51.490;5.436;2022-07-29T00:07:09;6.77;;;2.20;;
64641;SDS011;59936;51.490;5.436;2022-07-29T00:07:15;5.82;;;2.10;;
64641;SDS011;59936;51.490;5.436;2022-07-29T00:07:20;5.87;;;2.20;;
64641;SDS011;59936;51.490;5.436;2022-07-29T00:07:26;5.37;;;2.17;;
64641;SDS011;59936;51.490;5.436;2022-07-29T00:07:31;5.00;;;2.22;;
64641;SDS011;59936;51.490;5.436;2022-07-29T00:07:36;4.73;;;2.27;;
64641;SDS011;59936;51.490;5.436;2022-07-29T00:07:42;5.45;;;2.28;;
64641;SDS011;59936;51.490;5.436;2022-07-29T00:07:47;5.87;;;2.40;;
64641;SDS011;59936;51.490;5.436;2022-07-29T00:07:52;5.57;;;2.38;;
64641;SDS011;59936;51.490;5.436;2022-07-29T00:07:58;5.67;;;2.30;;
64641;SDS011;59936;51.490;5.436;2022-07-29T00:08:03;5.70;;;2.25;;
64641;SDS011;59936;51.490;5.436;2022-07-29T00:08:09;4.57;;;2.10;;
64641;SDS011;59936;51.490;5.436;2022-07-29T00:08:14;3.80;;;2.00;;
64641;SDS011;59936;51.490;5.436;2022-07-29T00:08:20;3.38;;;1.98;;
64641;SDS011;59936;51.490;5.436;2022-07-29T00:08:25;3.75;;;2.10;;
64641;SDS011;59936;51.490;5.436;2022-07-29T00:08:31;4.57;;;2.10;;
64641;SDS011;59936;51.490;5.436;2022-07-29T00:08:36;4.83;;;2.10;;
64641;SDS011;59936;51.490;5.436;2022-07-29T00:08:41;5.30;;;2.20;;
64641;SDS011;59936;51.490;5.436;2022-07-29T00:08:47;5.53;;;2.20;;
64641;SDS011;59936;51.490;5.436;2022-07-29T00:08:52;6.17;;;2.10;;
64641;SDS011;59936;51.490;5.436;2022-07-29T00:08:58;5.57;;;2.03;;
64641;SDS011;59936;51.490;5.436;2022-07-29T00:09:03;4.23;;;2.00;;
64641;SDS011;59936;51.490;5.436;2022-07-29T00:09:08;3.90;;;2.00;;
64641;SDS011;59936;51.490;5.436;2022-07-29T00:09:14;3.33;;;1.90;;
64641;SDS011;59936;51.490;5.436;2022-07-29T00:09:19;3.23;;;1.87;;
64641;SDS011;59936;51.490;5.436;2022-07-29T00:09:25;2.95;;;1.90;;
64641;SDS011;59936;51.490;5.436;2022-07-29T00:09:30;2.97;;;1.90;;
64641;SDS011;59936;51.490;5.436;2022-07-29T00:09:37;3.78;;;1.92;;
64641;SDS011;59936;51.490;5.436;2022-07-29T00:09:43;4.63;;;2.10;;
64641;SDS011;59936;51.490;5.436;2022-07-29T00:09:48;5.03;;;2.10;;
64641;SDS011;59936;51.490;5.436;2022-07-29T00:09:53;4.70;;;2.10;;
64641;SDS011;59936;51.490;5.436;2022-07-29T00:09:59;4.63;;;2.10;;
64641;SDS011;59936;51.490;5.436;2022-07-29T00:10:04;3.93;;;2.10;;
64641;SDS011;59936;51.490;5.436;2022-07-29T00:10:10;3.78;;;2.10;;
64641;SDS011;59936;51.490;5.436;2022-07-29T00:10:15;2.93;;;2.10;;
64641;SDS011;59936;51.490;5.436;2022-07-29T00:10:21;3.47;;;2.10;;
64641;SDS011;59936;51.490;5.436;2022-07-29T00:10:26;4.00;;;2.10;;
64641;SDS011;59936;51.490;5.436;2022-07-29T00:10:31;4.23;;;2.10;;
64641;SDS011;59936;51.490;5.436;2022-07-29T00:10:37;4.70;;;2.07;;
64641;SDS011;59936;51.490;5.436;2022-07-29T00:10:43;4.90;;;2.07;;
64641;SDS011;59936;51.490;5.436;2022-07-29T00:10:48;4.70;;;2.10;;
64641;SDS011;59936;51.490;5.436;2022-07-29T00:10:54;4.20;;;2.00;;
64641;SDS011;59936;51.490;5.436;2022-07-29T00:10:59;3.80;;;2.05;;
64641;SDS011;59936;51.490;5.436;2022-07-29T00:11:05;3.63;;;2.10;;
64641;SDS011;59936;51.490;5.436;2022-07-29T00:11:10;3.40;;;2.10;;
64641;SDS011;59936;51.490;5.436;2022-07-29T00:11:15;3.38;;;2.10;;
64641;SDS011;59936;51.490;5.436;2022-07-29T00:11:21;3.83;;;2.10;;
64641;SDS011;59936;51.490;5.436;2022-07-29T00:11:26;4.53;;;2.20;;
64641;SDS011;59936;51.490;5.436;2022-07-29T00:11:32;4.20;;;2.05;;
64641;SDS011;59936;51.490;5.436;2022-07-29T00:11:37;4.28;;;2.03;;
64641;SDS011;59936;51.490;5.436;2022-07-29T00:11:43;4.23;;;2.00;;
64641;SDS011;59936;51.490;5.436;2022-07-29T00:11:48;3.93;;;1.90;;
64641;SDS011;59936;51.490;5.436;2022-07-29T00:11:54;3.65;;;1.90;;
64641;SDS011;59936;51.490;5.436;2022-07-29T00:12:04;4.05;;;1.90;;
64641;SDS011;59936;51.490;5.436;2022-07-29T00:12:10;4.18;;;1.90;;
64641;SDS011;59936;51.490;5.436;2022-07-29T00:12:15;4.78;;;1.98;;
64641;SDS011;59936;51.490;5.436;2022-07-29T00:12:22;4.63;;;2.00;;
64641;SDS011;59936;51.490;5.436;2022-07-29T00:12:30;3.90;;;1.97;;
64641;SDS011;59936;51.490;5.436;2022-07-29T00:12:35;4.25;;;2.03;;
64641;SDS011;59936;51.490;5.436;2022-07-29T00:12:41;4.47;;;2.07;;
64641;SDS011;59936;51.490;5.436;2022-07-29T00:12:46;3.70;;;2.00;;
64641;SDS011;59936;51.490;5.436;2022-07-29T00:12:52;3.70;;;2.00;;
64641;SDS011;59936;51.490;5.436;2022-07-29T00:12:57;3.70;;;2.10;;
64641;SDS011;59936;51.490;5.436;2022-07-29T00:13:02;3.97;;;2.17;;
64641;SDS011;59936;51.490;5.436;2022-07-29T00:13:08;4.33;;;2.20;;
64641;SDS011;59936;51.490;5.436;2022-07-29T00:13:13;4.65;;;2.22;;
64641;SDS011;59936;51.490;5.436;2022-07-29T00:13:19;5.13;;;2.30;;
64641;SDS011;59936;51.490;5.436;2022-07-29T00:13:24;5.33;;;2.30;;
64641;SDS011;59936;51.490;5.436;2022-07-29T00:13:29;5.50;;;2.20;;
64641;SDS011;59936;51.490;5.436;2022-07-29T00:13:35;4.80;;;2.20;;
64641;SDS011;59936;51.490;5.436;2022-07-29T00:13:40;3.87;;;2.10;;
64641;SDS011;59936;51.490;5.436;2022-07-29T00:13:45;4.35;;;2.17;;
64641;SDS011;59936;51.490;5.436;2022-07-29T00:13:51;4.27;;;2.10;;
64641;SDS011;59936;51.490;5.436;2022-07-29T00:13:56;4.23;;;2.20;;
64641;SDS011;59936;51.490;5.436;2022-07-29T00:14:02;5.05;;;2.20;;
64641;SDS011;59936;51.490;5.436;2022-07-29T00:14:07;5.55;;;2.20;;
64641;SDS011;59936;51.490;5.436;2022-07-29T00:14:13;5.90;;;2.27;;
64641;SDS011;59936;51.490;5.436;2022-07-29T00:14:18;5.63;;;2.20;;
64641;SDS011;59936;51.490;5.436;2022-07-29T00:14:24;5.87;;;2.27;;
64641;SDS011;59936;51.490;5.436;2022-07-29T00:14:29;5.07;;;2.20;;
64641;SDS011;59936;51.490;5.436;2022-07-29T00:14:35;5.03;;;2.30;;
64641;SDS011;59936;51.490;5.436;2022-07-29T00:14:40;4.90;;;2.27;;
64641;SDS011;59936;51.490;5.436;2022-07-29T00:14:45;4.47;;;2.13;;
64641;SDS011;59936;51.490;5.436;2022-07-29T00:14:51;4.07;;;2.17;;
64641;SDS011;59936;51.490;5.436;2022-07-29T00:14:59;4.27;;;2.07;;
64641;SDS011;59936;51.490;5.436;2022-07-29T00:15:04;4.90;;;2.03;;
64641;SDS011;59936;51.490;5.436;2022-07-29T00:15:10;5.80;;;2.10;;
64641;SDS011;59936;51.490;5.436;2022-07-29T00:15:16;5.82;;;2.10;;
64641;SDS011;59936;51.490;5.436;2022-07-29T00:15:21;6.20;;;2.05;;
64641;SDS011;59936;51.490;5.436;2022-07-29T00:15:27;6.30;;;2.10;;
64641;SDS011;59936;51.490;5.436;2022-07-29T00:15:33;5.63;;;2.10;;
64641;SDS011;59936;51.490;5.436;2022-07-29T00:15:38;4.72;;;2.05;;
64641;SDS011;59936;51.490;5.436;2022-07-29T00:15:44;4.83;;;2.10;;
64641;SDS011;59936;51.490;5.436;2022-07-29T00:15:49;4.03;;;2.15;;
64641;SDS011;59936;51.490;5.436;2022-07-29T00:15:54;3.93;;;2.10;;
64641;SDS011;59936;51.490;5.436;2022-07-29T00:16:00;4.57;;;2.10;;
64641;SDS011;59936;51.490;5.436;2022-07-29T00:16:05;4.40;;;2.10;;
64641;SDS011;59936;51.490;5.436;2022-07-29T00:16:11;3.70;;;2.00;;
64641;SDS011;59936;51.490;5.436;2022-07-29T00:16:16;3.80;;;1.90;;
64641;SDS011;59936;51.490;5.436;2022-07-29T00:16:21;4.10;;;2.00;;
64641;SDS011;59936;51.490;5.436;2022-07-29T00:16:27;3.72;;;2.00;;
64641;SDS011;59936;51.490;5.436;2022-07-29T00:16:33;4.13;;;2.07;;
64641;SDS011;59936;51.490;5.436;2022-07-29T00:16:39;4.15;;;2.00;;
64641;SDS011;59936;51.490;5.436;2022-07-29T00:16:44;4.25;;;2.05;;
64641;SDS011;59936;51.490;5.436;2022-07-29T00:16:50;4.90;;;2.03;;
64641;SDS011;59936;51.490;5.436;2022-07-29T00:16:55;5.78;;;2.00;;
64641;SDS011;59936;51.490;5.436;2022-07-29T00:17:01;5.10;;;2.00;;
64641;SDS011;59936;51.490;5.436;2022-07-29T00:17:06;5.37;;;2.07;;
64641;SDS011;59936;51.490;5.436;2022-07-29T00:17:11;5.88;;;2.13;;
64641;SDS011;59936;51.490;5.436;2022-07-29T00:17:17;6.13;;;2.27;;
64641;SDS011;59936;51.490;5.436;2022-07-29T00:17:23;5.80;;;2.22;;
64641;SDS011;59936;51.490;5.436;2022-07-29T00:17:29;5.88;;;2.20;;
64641;SDS011;59936;51.490;5.436;2022-07-29T00:17:35;5.63;;;2.10;;
64641;SDS011;59936;51.490;5.436;2022-07-29T00:17:40;6.03;;;2.10;;
64641;SDS011;59936;51.490;5.436;2022-07-29T00:17:46;5.70;;;2.00;;
64641;SDS011;59936;51.490;5.436;2022-07-29T00:17:51;5.23;;;2.00;;
64641;SDS011;59936;51.490;5.436;2022-07-29T00:17:56;5.13;;;2.05;;
64641;SDS011;59936;51.490;5.436;2022-07-29T00:18:02;4.90;;;2.10;;
64641;SDS011;59936;51.490;5.436;2022-07-29T00:18:08;4.13;;;2.07;;
64641;SDS011;59936;51.490;5.436;2022-07-29T00:18:13;3.65;;;2.00;;
64641;SDS011;59936;51.490;5.436;2022-07-29T00:18:19;3.60;;;2.00;;
64641;SDS011;59936;51.490;5.436;2022-07-29T00:18:24;3.13;;;2.03;;
64641;SDS011;59936;51.490;5.436;2022-07-29T00:18:29;3.70;;;2.00;;
64641;SDS011;59936;51.490;5.436;2022-07-29T00:18:35;3.73;;;2.10;;
64641;SDS011;59936;51.490;5.436;2022-07-29T00:18:40;3.77;;;2.20;;
64641;SDS011;59936;51.490;5.436;2022-07-29T00:18:45;3.80;;;2.28;;
64641;SDS011;59936;51.490;5.436;2022-07-29T00:18:51;4.70;;;2.27;;
64641;SDS011;59936;51.490;5.436;2022-07-29T00:18:56;4.72;;;2.28;;
64641;SDS011;59936;51.490;5.436;2022-07-29T00:19:02;5.00;;;2.23;;
64641;SDS011;59936;51.490;5.436;2022-07-29T00:19:09;5.56;;;2.20;;
64641;SDS011;59936;51.490;5.436;2022-07-29T00:19:14;5.90;;;2.23;;
64641;SDS011;59936;51.490;5.436;2022-07-29T00:19:20;5.67;;;2.33;;
64641;SDS011;59936;51.490;5.436;2022-07-29T00:19:25;5.53;;;2.50;;
64641;SDS011;59936;51.490;5.436;2022-07-29T00:19:30;5.40;;;2.60;;
64641;SDS011;59936;51.490;5.436;2022-07-29T00:19:36;5.17;;;2.60;;
64641;SDS011;59936;51.490;5.436;2022-07-29T00:19:41;5.68;;;2.55;;
64641;SDS011;59936;51.490;5.436;2022-07-29T00:19:46;4.63;;;2.57;;
64641;SDS011;59936;51.490;5.436;2022-07-29T00:19:52;4.60;;;2.33;;
64641;SDS011;59936;51.490;5.436;2022-07-29T00:19:57;4.53;;;2.13;;
64641;SDS011;59936;51.490;5.436;2022-07-29T00:20:03;4.17;;;2.10;;
64641;SDS011;59936;51.490;5.436;2022-07-29T00:20:09;3.26;;;2.16;;
64641;SDS011;59936;51.490;5.436;2022-07-29T00:20:15;3.00;;;2.13;;
64641;SDS011;59936;51.490;5.436;2022-07-29T00:20:21;2.73;;;2.00;;
64641;SDS011;59936;51.490;5.436;2022-07-29T00:20:26;3.30;;;2.08;;
64641;SDS011;59936;51.490;5.436;2022-07-29T00:20:32;4.70;;;2.17;;
64641;SDS011;59936;51.490;5.436;2022-07-29T00:20:37;5.20;;;2.13;;
64641;SDS011;59936;51.490;5.436;2022-07-29T00:20:42;6.73;;;2.07;;
64641;SDS011;59936;51.490;5.436;2022-07-29T00:20:48;7.35;;;2.10;;
64641;SDS011;59936;51.490;5.436;2022-07-29T00:20:53;7.57;;;2.20;;
64641;SDS011;59936;51.490;5.436;2022-07-29T00:20:59;7.10;;;2.10;;
64641;SDS011;59936;51.490;5.436;2022-07-29T00:21:04;6.13;;;2.10;;
64641;SDS011;59936;51.490;5.436;2022-07-29T00:21:10;5.73;;;2.10;;
64641;SDS011;59936;51.490;5.436;2022-07-29T00:21:15;4.07;;;2.05;;
64641;SDS011;59936;51.490;5.436;2022-07-29T00:21:20;3.53;;;1.97;;
64641;SDS011;59936;51.490;5.436;2022-07-29T00:21:26;2.42;;;1.90;;
64641;SDS011;59936;51.490;5.436;2022-07-29T00:21:31;2.23;;;1.80;;
64641;SDS011;59936;51.490;5.436;2022-07-29T00:21:37;2.43;;;1.80;;
64641;SDS011;59936;51.490;5.436;2022-07-29T00:21:42;2.88;;;1.83;;
64641;SDS011;59936;51.490;5.436;2022-07-29T00:21:48;2.97;;;1.90;;
64641;SDS011;59936;51.490;5.436;2022-07-29T00:21:53;3.47;;;1.92;;
64641;SDS011;59936;51.490;5.436;2022-07-29T00:21:58;4.13;;;2.00;;
64641;SDS011;59936;51.490;5.436;2022-07-29T00:22:03;4.57;;;2.00;;
64641;SDS011;59936;51.490;5.436;2022-07-29T00:22:09;4.43;;;2.05;;
64641;SDS011;59936;51.490;5.436;2022-07-29T00:22:14;4.17;;;2.00;;
64641;SDS011;59936;51.490;5.436;2022-07-29T00:22:20;4.37;;;2.10;;
64641;SDS011;59936;51.490;5.436;2022-07-29T00:22:25;4.25;;;2.08;;
64641;SDS011;59936;51.490;5.436;2022-07-29T00:22:31;3.73;;;2.00;;
64641;SDS011;59936;51.490;5.436;2022-07-29T00:22:37;4.75;;;2.10;;
64641;SDS011;59936;51.490;5.436;2022-07-29T00:22:43;4.66;;;1.98;;
64641;SDS011;59936;51.490;5.436;2022-07-29T00:22:49;4.60;;;1.93;;
64641;SDS011;59936;51.490;5.436;2022-07-29T00:22:54;4.50;;;1.92;;
64641;SDS011;59936;51.490;5.436;2022-07-29T00:22:59;4.93;;;2.00;;
64641;SDS011;59936;51.490;5.436;2022-07-29T00:23:05;4.40;;;2.00;;
64641;SDS011;59936;51.490;5.436;2022-07-29T00:23:10;4.53;;;1.98;;
64641;SDS011;59936;51.490;5.436;2022-07-29T00:23:15;5.03;;;2.10;;
64641;SDS011;59936;51.490;5.436;2022-07-29T00:23:21;5.10;;;2.08;;
64641;SDS011;59936;51.490;5.436;2022-07-29T00:23:26;5.40;;;2.00;;
64641;SDS011;59936;51.490;5.436;2022-07-29T00:23:31;5.47;;;2.10;;
64641;SDS011;59936;51.490;5.436;2022-07-29T00:23:37;4.70;;;2.00;;
64641;SDS011;59936;51.490;5.436;2022-07-29T00:23:42;4.17;;;2.00;;
64641;SDS011;59936;51.490;5.436;2022-07-29T00:23:48;4.37;;;1.93;;
64641;SDS011;59936;51.490;5.436;2022-07-29T00:23:53;5.00;;;1.98;;
64641;SDS011;59936;51.490;5.436;2022-07-29T00:23:58;4.80;;;1.90;;
64641;SDS011;59936;51.490;5.436;2022-07-29T00:24:04;5.28;;;1.98;;
64641;SDS011;59936;51.490;5.436;2022-07-29T00:24:09;5.73;;;2.07;;
64641;SDS011;59936;51.490;5.436;2022-07-29T00:24:15;6.30;;;2.38;;
64641;SDS011;59936;51.490;5.436;2022-07-29T00:24:20;5.63;;;2.37;;
64641;SDS011;59936;51.490;5.436;2022-07-29T00:24:25;5.30;;;2.30;;
64641;SDS011;59936;51.490;5.436;2022-07-29T00:24:31;4.63;;;2.30;;
64641;SDS011;59936;51.490;5.436;2022-07-29T00:24:36;4.77;;;2.23;;
64641;SDS011;59936;51.490;5.436;2022-07-29T00:24:42;4.65;;;2.17;;
64641;SDS011;59936;51.490;5.436;2022-07-29T00:24:48;4.27;;;2.00;;
64641;SDS011;59936;51.490;5.436;2022-07-29T00:24:54;4.90;;;2.10;;
64641;SDS011;59936;51.490;5.436;2022-07-29T00:24:59;4.75;;;2.13;;
64641;SDS011;59936;51.490;5.436;2022-07-29T00:25:04;5.10;;;2.17;;
64641;SDS011;59936;51.490;5.436;2022-07-29T00:25:11;4.60;;;2.20;;
64641;SDS011;59936;51.490;5.436;2022-07-29T00:25:17;4.57;;;2.17;;
64641;SDS011;59936;51.490;5.436;2022-07-29T00:25:24;4.00;;;2.10;;
64641;SDS011;59936;51.490;5.436;2022-07-29T00:25:29;4.47;;;2.17;;
64641;SDS011;59936;51.490;5.436;2022-07-29T00:25:34;3.83;;;2.13;;
64641;SDS011;59936;51.490;5.436;2022-07-29T00:25:40;3.90;;;2.13;;
64641;SDS011;59936;51.490;5.436;2022-07-29T00:25:45;3.80;;;2.03;;
64641;SDS011;59936;51.490;5.436;2022-07-29T00:25:51;4.53;;;2.10;;
64641;SDS011;59936;51.490;5.436;2022-07-29T00:25:56;4.35;;;2.17;;
64641;SDS011;59936;51.490;5.436;2022-07-29T00:26:01;4.93;;;2.20;;
64641;SDS011;59936;51.490;5.436;2022-07-29T00:26:07;4.70;;;2.20;;
64641;SDS011;59936;51.490;5.436;2022-07-29T00:26:12;4.53;;;2.23;;
64641;SDS011;59936;51.490;5.436;2022-07-29T00:26:18;4.35;;;2.22;;
64641;SDS011;59936;51.490;5.436;2022-07-29T00:26:23;4.03;;;2.13;;
64641;SDS011;59936;51.490;5.436;2022-07-29T00:26:29;3.42;;;2.03;;
64641;SDS011;59936;51.490;5.436;2022-07-29T00:26:36;3.53;;;2.03;;
64641;SDS011;59936;51.490;5.436;2022-07-29T00:26:42;4.07;;;2.05;;
64641;SDS011;59936;51.490;5.436;2022-07-29T00:26:47;4.40;;;2.03;;
64641;SDS011;59936;51.490;5.436;2022-07-29T00:26:52;4.37;;;2.10;;
64641;SDS011;59936;51.490;5.436;2022-07-29T00:26:58;4.55;;;2.13;;
64641;SDS011;59936;51.490;5.436;2022-07-29T00:27:03;4.73;;;2.13;;
64641;SDS011;59936;51.490;5.436;2022-07-29T00:27:08;4.43;;;2.10;;
64641;SDS011;59936;51.490;5.436;2022-07-29T00:27:14;3.70;;;2.03;;
64641;SDS011;59936;51.490;5.436;2022-07-29T00:27:19;3.70;;;2.00;;
64641;SDS011;59936;51.490;5.436;2022-07-29T00:27:25;5.03;;;2.00;;
64641;SDS011;59936;51.490;5.436;2022-07-29T00:27:30;5.70;;;2.00;;
64641;SDS011;59936;51.490;5.436;2022-07-29T00:27:36;6.35;;;2.05;;
64641;SDS011;59936;51.490;5.436;2022-07-29T00:27:41;6.90;;;2.23;;
64641;SDS011;59936;51.490;5.436;2022-07-29T00:27:46;6.97;;;2.28;;
64641;SDS011;59936;51.490;5.436;2022-07-29T00:27:52;7.60;;;2.30;;
64641;SDS011;59936;51.490;5.436;2022-07-29T00:27:57;5.80;;;2.30;;
64641;SDS011;59936;51.490;5.436;2022-07-29T00:28:03;6.03;;;2.30;;
64641;SDS011;59936;51.490;5.436;2022-07-29T00:28:08;5.93;;;2.20;;
64641;SDS011;59936;51.490;5.436;2022-07-29T00:28:13;6.43;;;2.20;;
64641;SDS011;59936;51.490;5.436;2022-07-29T00:28:19;6.10;;;2.15;;
64641;SDS011;59936;51.490;5.436;2022-07-29T00:28:24;5.87;;;2.20;;
64641;SDS011;59936;51.490;5.436;2022-07-29T00:28:30;5.50;;;2.15;;
64641;SDS011;59936;51.490;5.436;2022-07-29T00:28:35;5.07;;;2.20;;
64641;SDS011;59936;51.490;5.436;2022-07-29T00:28:40;5.23;;;2.13;;
64641;SDS011;59936;51.490;5.436;2022-07-29T00:28:46;6.32;;;2.15;;
64641;SDS011;59936;51.490;5.436;2022-07-29T00:28:51;5.97;;;2.17;;
64641;SDS011;59936;51.490;5.436;2022-07-29T00:28:57;5.77;;;2.10;;
64641;SDS011;59936;51.490;5.436;2022-07-29T00:29:04;5.53;;;2.08;;
64641;SDS011;59936;51.490;5.436;2022-07-29T00:29:10;4.65;;;1.98;;
64641;SDS011;59936;51.490;5.436;2022-07-29T00:29:15;3.63;;;1.90;;
64641;SDS011;59936;51.490;5.436;2022-07-29T00:29:21;3.90;;;1.93;;
64641;SDS011;59936;51.490;5.436;2022-07-29T00:29:27;4.07;;;2.00;;
64641;SDS011;59936;51.490;5.436;2022-07-29T00:29:32;3.90;;;1.90;;
64641;SDS011;59936;51.490;5.436;2022-07-29T00:29:37;4.07;;;2.00;;
64641;SDS011;59936;51.490;5.436;2022-07-29T00:29:43;4.43;;;2.03;;
64641;SDS011;59936;51.490;5.436;2022-07-29T00:29:49;4.68;;;2.10;;
64641;SDS011;59936;51.490;5.436;2022-07-29T00:29:54;4.77;;;2.00;;
64641;SDS011;59936;51.490;5.436;2022-07-29T00:29:59;4.73;;;2.00;;
64641;SDS011;59936;51.490;5.436;2022-07-29T00:30:05;4.70;;;2.08;;
64641;SDS011;59936;51.490;5.436;2022-07-29T00:30:12;4.20;;;2.12;;
64641;SDS011;59936;51.490;5.436;2022-07-29T00:30:18;4.30;;;2.10;;
64641;SDS011;59936;51.490;5.436;2022-07-29T00:30:23;4.57;;;2.20;;
64641;SDS011;59936;51.490;5.436;2022-07-29T00:30:28;4.40;;;2.17;;
64641;SDS011;59936;51.490;5.436;2022-07-29T00:30:34;4.60;;;2.15;;
64641;SDS011;59936;51.490;5.436;2022-07-29T00:30:39;4.60;;;2.10;;
64641;SDS011;59936;51.490;5.436;2022-07-29T00:30:46;4.40;;;2.02;;
64641;SDS011;59936;51.490;5.436;2022-07-29T00:30:52;3.93;;;1.93;;
64641;SDS011;59936;51.490;5.436;2022-07-29T00:30:57;4.23;;;2.00;;
64641;SDS011;59936;51.490;5.436;2022-07-29T00:31:03;4.85;;;2.00;;
64641;SDS011;59936;51.490;5.436;2022-07-29T00:31:08;5.57;;;2.00;;
64641;SDS011;59936;51.490;5.436;2022-07-29T00:31:13;5.53;;;2.03;;
64641;SDS011;59936;51.490;5.436;2022-07-29T00:31:19;5.50;;;2.00;;
64641;SDS011;59936;51.490;5.436;2022-07-29T00:31:25;5.17;;;2.00;;
64641;SDS011;59936;51.490;5.436;2022-07-29T00:31:31;4.73;;;2.00;;
64641;SDS011;59936;51.490;5.436;2022-07-29T00:31:37;4.17;;;2.03;;
64641;SDS011;59936;51.490;5.436;2022-07-29T00:31:42;4.17;;;2.03;;
64641;SDS011;59936;51.490;5.436;2022-07-29T00:31:47;4.20;;;2.00;;
64641;SDS011;59936;51.490;5.436;2022-07-29T00:31:53;4.27;;;2.10;;
64641;SDS011;59936;51.490;5.436;2022-07-29T00:31:58;4.07;;;2.00;;
64641;SDS011;59936;51.490;5.436;2022-07-29T00:32:04;3.67;;;1.95;;
64641;SDS011;59936;51.490;5.436;2022-07-29T00:32:09;3.83;;;2.00;;
64641;SDS011;59936;51.490;5.436;2022-07-29T00:32:15;3.73;;;2.00;;
64641;SDS011;59936;51.490;5.436;2022-07-29T00:32:20;3.67;;;2.03;;
64641;SDS011;59936;51.490;5.436;2022-07-29T00:32:25;3.97;;;2.05;;
64641;SDS011;59936;51.490;5.436;2022-07-29T00:32:31;4.70;;;2.17;;
64641;SDS011;59936;51.490;5.436;2022-07-29T00:32:36;4.97;;;2.10;;
64641;SDS011;59936;51.490;5.436;2022-07-29T00:32:42;5.47;;;2.10;;
64641;SDS011;59936;51.490;5.436;2022-07-29T00:32:47;5.47;;;2.10;;
64641;SDS011;59936;51.490;5.436;2022-07-29T00:32:52;5.33;;;2.03;;
64641;SDS011;59936;51.490;5.436;2022-07-29T00:32:58;4.63;;;2.00;;
64641;SDS011;59936;51.490;5.436;2022-07-29T00:33:03;4.70;;;2.07;;
64641;SDS011;59936;51.490;5.436;2022-07-29T00:33:09;4.00;;;2.05;;
64641;SDS011;59936;51.490;5.436;2022-07-29T00:33:14;3.67;;;2.00;;
64641;SDS011;59936;51.490;5.436;2022-07-29T00:33:20;4.23;;;2.00;;
64641;SDS011;59936;51.490;5.436;2022-07-29T00:33:26;3.94;;;1.96;;
64641;SDS011;59936;51.490;5.436;2022-07-29T00:33:33;4.13;;;1.90;;
64641;SDS011;59936;51.490;5.436;2022-07-29T00:33:38;4.05;;;1.83;;
64641;SDS011;59936;51.490;5.436;2022-07-29T00:33:44;3.97;;;1.87;;